Time;durP1;ratioP1;P1;durP2;ratioP2;P2;SDS_P1;SDS_P2;PMS_P1;PMS_P2;Temp;Humidity;BMP_temperature;BMP_pressure;BME280_temperature;BME280_humidity;BME280_pressure;Samples;Min_cycle;Max_cycle;Signal;HPM_P1;HPM_P2
2022/06/21 00:00:52;;;;;;;18.30;7.22;;;10.50;99.90;;;;;;5038092;28;20479;-71
2022/06/21 00:24:13;;;;;;;9.05;4.10;;;10.00;99.90;;;;;;4971635;28;20038;-71
2022/06/21 00:26:39;;;;;;;10.48;4.60;;;10.00;99.90;;;;;;4973541;28;20061;-71
2022/06/21 00:29:05;;;;;;;10.77;3.92;;;9.90;99.90;;;;;;4970247;28;20027;-71
2022/06/21 00:31:33;;;;;;;8.38;4.43;;;9.90;99.90;;;;;;4956560;28;20066;-71
2022/06/21 00:34:35;;;;;;;11.35;4.90;;;9.90;99.90;;;;;;4980445;28;20146;-71
2022/06/21 00:37:23;;;;;;;2.45;2.03;;;9.80;99.90;;;;;;4966908;28;20045;-71
2022/06/21 00:39:51;;;;;;;2.30;2.00;;;9.70;99.90;;;;;;4970044;28;20046;-71
2022/06/21 00:42:26;;;;;;;2.85;1.48;;;9.60;99.90;;;;;;4954401;28;20509;-71
2022/06/21 00:49:11;;;;;;;2.10;1.50;;;9.10;99.90;;;;;;4966545;28;20097;-71
2022/06/21 00:52:22;;;;;;;4.40;2.30;;;9.10;99.90;;;;;;4966295;28;20034;-71
2022/06/21 00:55:50;;;;;;;5.53;3.47;;;9.10;99.90;;;;;;4967175;28;20078;-71
2022/06/21 00:59:32;;;;;;;3.72;2.67;;;9.10;99.90;;;;;;4935344;28;20050;-71
2022/06/21 01:02:31;;;;;;;8.15;4.43;;;9.10;99.90;;;;;;4970430;28;20047;-71
2022/06/21 01:05:01;;;;;;;6.13;4.22;;;9.10;99.90;;;;;;4983514;28;20478;-70
2022/06/21 01:07:28;;;;;;;10.68;4.70;;;9.10;99.90;;;;;;4966252;28;20050;-71
2022/06/21 01:10:09;;;;;;;5.82;4.03;;;9.10;99.90;;;;;;4969530;28;20053;-71
2022/06/21 01:12:48;;;;;;;3.60;1.50;;;9.10;99.90;;;;;;4967276;28;20572;-71
2022/06/21 01:15:19;;;;;;;27.55;1.83;;;8.90;99.90;;;;;;4953726;28;20031;-71
2022/06/21 01:17:49;;;;;;;34.45;2.50;;;8.60;99.90;;;;;;4967633;28;20408;-71
2022/06/21 01:20:20;;;;;;;2.92;1.30;;;8.50;99.90;;;;;;4953365;28;20085;-72
2022/06/21 01:23:03;;;;;;;11.23;2.13;;;8.30;99.90;;;;;;4966285;28;20043;-72
2022/06/21 01:26:13;;;;;;;2.53;2.05;;;8.20;99.90;;;;;;4968838;28;20038;-71
2022/06/21 01:28:39;;;;;;;3.90;2.50;;;8.30;99.90;;;;;;4947404;28;20047;-71
2022/06/21 01:31:17;;;;;;;5.93;3.47;;;8.30;99.90;;;;;;4969913;28;20046;-71
2022/06/21 01:33:43;;;;;;;5.43;4.30;;;8.30;99.90;;;;;;4953052;28;20509;-71
2022/06/21 01:36:20;;;;;;;8.20;4.28;;;8.40;99.90;;;;;;4977573;28;20058;-70
2022/06/21 01:38:52;;;;;;;3.38;2.42;;;8.50;99.90;;;;;;4972196;28;20493;-71
2022/06/21 01:41:23;;;;;;;4.20;3.17;;;8.50;99.90;;;;;;4956017;28;20050;-71
2022/06/21 01:43:52;;;;;;;3.40;2.58;;;8.50;99.90;;;;;;4975328;28;20551;-71
2022/06/21 01:46:23;;;;;;;3.38;2.22;;;8.50;99.90;;;;;;4970153;28;20038;-71
2022/06/21 01:48:51;;;;;;;2.53;2.13;;;8.50;99.90;;;;;;4976728;28;20088;-70
2022/06/21 01:51:25;;;;;;;2.95;2.50;;;8.50;99.90;;;;;;4960371;28;20047;-70
2022/06/21 01:53:52;;;;;;;5.32;2.50;;;8.50;99.90;;;;;;4975239;28;20114;-71
2022/06/21 01:56:23;;;;;;;3.58;2.45;;;8.40;99.90;;;;;;4968784;28;20054;-71
2022/06/21 01:58:56;;;;;;;4.03;2.28;;;8.40;99.90;;;;;;4964387;28;20477;-71
2022/06/21 02:01:46;;;;;;;2.53;2.00;;;8.40;99.90;;;;;;4962102;28;20046;-73
2022/06/21 02:04:17;;;;;;;2.50;1.90;;;8.40;99.90;;;;;;4974566;28;20126;-71
2022/06/21 02:06:46;;;;;;;3.58;2.10;;;8.30;99.90;;;;;;4968960;28;20116;-70
2022/06/21 02:09:26;;;;;;;3.20;2.38;;;8.30;99.90;;;;;;4975773;28;20401;-72
2022/06/21 02:12:04;;;;;;;3.22;2.33;;;8.20;99.90;;;;;;4967130;28;20039;-72
2022/06/21 02:14:36;;;;;;;4.22;3.10;;;8.20;99.90;;;;;;4971000;28;20544;-72
2022/06/21 02:17:10;;;;;;;5.15;3.38;;;8.10;99.90;;;;;;4970197;28;20374;-72
2022/06/21 02:20:02;;;;;;;3.65;3.00;;;8.10;99.90;;;;;;4975934;28;20088;-71
2022/06/21 02:22:30;;;;;;;40.05;3.72;;;8.10;99.90;;;;;;4969483;28;20118;-71
2022/06/21 02:24:56;;;;;;;27.23;3.17;;;8.00;99.90;;;;;;4952711;28;20117;-72
2022/06/21 02:27:27;;;;;;;59.25;3.90;;;7.80;99.90;;;;;;4966549;28;20121;-73
2022/06/21 02:29:56;;;;;;;154.18;6.68;;;7.60;99.90;;;;;;5008904;28;20130;-73
2022/06/21 02:32:34;;;;;;;91.35;4.93;;;7.30;99.90;;;;;;4995264;28;20034;-74
2022/06/21 02:35:29;;;;;;;48.60;3.90;;;7.10;99.90;;;;;;4970393;28;20038;-74
2022/06/21 02:37:58;;;;;;;35.72;3.75;;;6.90;99.90;;;;;;4975295;28;20081;-74
2022/06/21 02:40:39;;;;;;;42.00;4.70;;;6.90;99.90;;;;;;4972926;28;20043;-75
2022/06/21 02:43:14;;;;;;;7.90;4.32;;;6.80;99.90;;;;;;4968885;28;20050;-74
2022/06/21 02:46:08;;;;;;;7.10;4.35;;;6.90;99.90;;;;;;4970651;28;20310;-73
2022/06/21 02:48:40;;;;;;;11.65;4.40;;;7.00;99.90;;;;;;4952161;28;20066;-74
2022/06/21 02:51:12;;;;;;;18.45;4.75;;;7.00;99.90;;;;;;4957579;28;20097;-75
2022/06/21 02:54:02;;;;;;;9.63;6.30;;;7.00;99.90;;;;;;4977300;28;20057;-75
2022/06/21 02:56:37;;;;;;;9.98;6.13;;;7.10;99.90;;;;;;4969269;28;20042;-74
2022/06/21 02:59:22;;;;;;;9.70;5.50;;;7.20;99.90;;;;;;4973568;28;20043;-74
2022/06/21 03:02:07;;;;;;;8.90;5.35;;;7.30;99.90;;;;;;4952297;28;20090;-75
2022/06/21 03:04:39;;;;;;;7.47;4.40;;;7.30;99.90;;;;;;5009631;28;20118;-75
2022/06/21 03:07:07;;;;;;;10.60;4.45;;;7.40;99.90;;;;;;5003242;28;20378;-75
2022/06/21 03:09:42;;;;;;;6.05;3.80;;;7.50;99.90;;;;;;4991958;28;20478;-75
2022/06/21 03:12:13;;;;;;;4.30;3.20;;;7.30;99.90;;;;;;5008900;28;20085;-76
2022/06/21 03:14:45;;;;;;;5.43;3.40;;;7.40;99.90;;;;;;4977149;28;20054;-76
2022/06/21 03:17:25;;;;;;;4.82;3.65;;;7.40;99.90;;;;;;4995449;28;20398;-76
2022/06/21 03:19:52;;;;;;;5.03;3.53;;;7.30;99.90;;;;;;4959452;28;20280;-74
2022/06/21 03:22:24;;;;;;;5.85;3.85;;;7.40;99.90;;;;;;4960083;28;20047;-74
2022/06/21 03:24:55;;;;;;;;;;;7.40;99.90;;;;;;4980561;28;20038;-75
2022/06/21 03:27:33;;;;;;;6.90;3.80;;;7.30;99.90;;;;;;4972580;28;20360;-75
2022/06/21 03:29:59;;;;;;;4.88;3.42;;;7.30;99.90;;;;;;4969310;28;20121;-74
2022/06/21 03:32:28;;;;;;;9.55;4.68;;;7.30;99.90;;;;;;4977011;28;20405;-76
2022/06/21 03:34:54;;;;;;;7.07;4.22;;;7.30;99.90;;;;;;4976939;28;20121;-76
2022/06/21 03:37:20;;;;;;;6.07;4.47;;;7.30;99.90;;;;;;4956329;28;20031;-75
2022/06/21 03:42:36;;;;;;;7.97;4.72;;;7.30;99.90;;;;;;4975123;28;20047;-75
2022/06/21 03:45:48;;;;;;;14.13;5.47;;;7.30;99.90;;;;;;4973740;28;20665;-76
2022/06/21 03:48:46;;;;;;;7.50;4.53;;;7.30;99.90;;;;;;4934284;28;20138;-77
2022/06/21 03:51:32;;;;;;;6.18;4.70;;;7.30;99.90;;;;;;4965575;28;20175;-77
2022/06/21 03:54:07;;;;;;;6.35;4.43;;;7.20;99.90;;;;;;4974123;28;20050;-76
2022/06/21 03:56:53;;;;;;;9.35;5.60;;;7.30;99.90;;;;;;4953627;28;20046;-75
2022/06/21 03:59:19;;;;;;;11.00;5.75;;;7.30;99.90;;;;;;4982297;28;20045;-75
2022/06/21 04:01:52;;;;;;;11.25;6.22;;;7.30;99.90;;;;;;4975896;28;20038;-75
2022/06/21 04:04:39;;;;;;;12.57;6.40;;;7.40;99.90;;;;;;4973216;28;20079;-76
2022/06/21 04:07:16;;;;;;;32.40;7.03;;;7.40;99.90;;;;;;4971836;28;20035;-75
2022/06/21 04:09:46;;;;;;;19.58;6.85;;;7.40;99.90;;;;;;4970662;28;20064;-75
2022/06/21 04:12:25;;;;;;;10.05;6.47;;;7.50;99.90;;;;;;4973928;28;20035;-76
2022/06/21 04:15:06;;;;;;;9.38;6.47;;;7.40;99.90;;;;;;4974269;28;20056;-77
2022/06/21 04:18:31;;;;;;;10.60;6.68;;;7.50;99.90;;;;;;4955797;28;20297;-77
2022/06/21 04:22:05;;;;;;;12.98;7.78;;;7.50;99.90;;;;;;4968576;28;20105;-77
2022/06/21 04:25:00;;;;;;;15.93;9.77;;;7.60;99.90;;;;;;4913596;28;20062;-77
2022/06/21 04:27:44;;;;;;;16.10;8.40;;;7.70;99.90;;;;;;4951175;28;20058;-77
2022/06/21 04:30:17;;;;;;;15.48;9.10;;;7.90;99.90;;;;;;4973485;28;20372;-77
2022/06/21 04:32:47;;;;;;;18.90;10.73;;;7.90;99.90;;;;;;4976202;28;20152;-77
2022/06/21 04:35:26;;;;;;;20.58;11.25;;;8.10;99.90;;;;;;4977681;28;20072;-77
2022/06/21 04:37:59;;;;;;;28.42;11.65;;;8.20;99.90;;;;;;4981466;28;20427;-76
2022/06/21 04:40:36;;;;;;;21.92;11.57;;;8.40;99.90;;;;;;4985769;28;20041;-75
2022/06/21 04:43:23;;;;;;;19.52;10.98;;;8.60;99.90;;;;;;4980017;28;20034;-75
2022/06/21 04:45:54;;;;;;;26.52;11.23;;;8.70;99.90;;;;;;4983198;28;20416;-74
2022/06/21 04:48:42;;;;;;;21.60;12.15;;;9.00;99.90;;;;;;4971861;28;20042;-74
2022/06/21 04:51:13;;;;;;;21.83;11.18;;;9.20;99.90;;;;;;4975443;28;20045;-73
2022/06/21 04:53:53;;;;;;;24.40;11.37;;;9.50;99.90;;;;;;4975262;28;20041;-72
2022/06/21 04:56:43;;;;;;;24.52;12.32;;;9.60;99.90;;;;;;4973727;28;20290;-72
2022/06/21 04:59:32;;;;;;;23.77;11.40;;;9.90;99.90;;;;;;4974995;28;20543;-71
2022/06/21 05:01:58;;;;;;;23.38;11.27;;;10.20;99.90;;;;;;4959062;28;20054;-70
2022/06/21 05:05:01;;;;;;;22.08;11.63;;;10.40;99.90;;;;;;4947749;28;20057;-70
2022/06/21 05:14:01;;;;;;;25.05;12.55;;;10.80;99.90;;;;;;5021652;23;20060;-70
2022/06/21 05:21:15;;;;;;;27.77;11.90;;;11.20;99.90;;;;;;4980576;28;20053;-70
2022/06/21 05:35:42;;;;;;;19.13;10.50;;;11.90;99.90;;;;;;4978060;28;20025;-69
2022/06/21 05:38:25;;;;;;;24.52;10.68;;;12.20;99.90;;;;;;4966706;28;20125;-71
2022/06/21 05:41:29;;;;;;;23.48;10.45;;;12.40;99.90;;;;;;4997259;28;20374;-70
2022/06/21 05:44:19;;;;;;;25.35;10.73;;;12.70;99.90;;;;;;4989463;28;20049;-72
2022/06/21 05:47:19;;;;;;;16.10;10.60;;;12.90;99.90;;;;;;4992427;28;20071;-72
2022/06/21 05:50:26;;;;;;;15.48;9.60;;;13.20;99.90;;;;;;5004271;28;20038;-71
2022/06/21 05:53:30;;;;;;;26.17;11.18;;;13.30;99.90;;;;;;4999777;28;20048;-71
2022/06/21 05:57:07;;;;;;;17.42;9.65;;;13.40;99.90;;;;;;4958655;28;20159;-72
2022/06/21 06:03:58;;;;;;;19.27;9.55;;;13.60;99.90;;;;;;4911539;29;20719;-72
2022/06/21 06:07:25;;;;;;;22.70;8.07;;;13.80;99.90;;;;;;4936732;29;20535;-72
2022/06/21 06:10:37;;;;;;;15.80;8.20;;;13.90;99.90;;;;;;4940367;28;20051;-73
2022/06/21 06:13:11;;;;;;;19.80;9.00;;;14.10;99.90;;;;;;4933191;29;20146;-74
2022/06/21 06:16:07;;;;;;;18.33;8.45;;;14.40;99.90;;;;;;5015644;28;20420;-73
2022/06/21 06:18:54;;;;;;;22.92;8.93;;;14.50;99.90;;;;;;5014719;28;20406;-74
2022/06/21 06:21:28;;;;;;;17.20;8.10;;;14.70;99.90;;;;;;5015957;28;20492;-72
2022/06/21 06:23:57;;;;;;;19.40;8.57;;;14.80;99.90;;;;;;5016264;28;20492;-72
2022/06/21 06:26:38;;;;;;;17.00;8.32;;;15.00;99.90;;;;;;4996774;28;20073;-75
2022/06/21 06:29:23;;;;;;;16.38;7.85;;;15.10;99.90;;;;;;5007785;28;20409;-72
2022/06/21 06:32:11;;;;;;;14.50;7.65;;;15.30;99.90;;;;;;5013973;28;20041;-73
2022/06/21 06:34:44;;;;;;;16.08;7.03;;;15.40;99.90;;;;;;4994312;28;20083;-72
2022/06/21 06:37:48;;;;;;;15.68;7.20;;;15.60;99.90;;;;;;5008932;28;20426;-72
2022/06/21 06:40:30;;;;;;;17.70;6.55;;;15.70;99.90;;;;;;4991155;28;20049;-74
2022/06/21 06:43:04;;;;;;;16.00;6.07;;;15.90;99.90;;;;;;5035362;28;20116;-72
2022/06/21 06:45:37;;;;;;;17.25;5.90;;;15.90;99.90;;;;;;4987125;28;20404;-72
2022/06/21 06:48:11;;;;;;;12.85;6.15;;;16.10;99.90;;;;;;4988188;28;20469;-73
2022/06/21 06:50:48;;;;;;;10.38;4.20;;;16.20;99.90;;;;;;5006678;28;20040;-72
2022/06/21 06:53:37;;;;;;;11.57;4.75;;;16.20;99.90;;;;;;4994039;28;20037;-73
2022/06/21 06:56:08;;;;;;;14.00;5.20;;;16.20;99.90;;;;;;4996929;28;20080;-73
2022/06/21 06:58:40;;;;;;;14.65;4.82;;;16.20;99.90;;;;;;4995539;28;20045;-72
2022/06/21 07:01:20;;;;;;;12.77;4.85;;;16.30;99.90;;;;;;5003767;28;20074;-72
2022/06/21 07:04:02;;;;;;;10.43;5.72;;;16.40;99.90;;;;;;5007474;28;20038;-72
2022/06/21 07:06:44;;;;;;;19.27;5.57;;;16.50;99.90;;;;;;5005550;28;20045;-72
2022/06/21 07:09:26;;;;;;;17.67;6.28;;;16.30;99.90;;;;;;5005129;28;20045;-72
2022/06/21 07:12:10;;;;;;;11.43;6.03;;;16.10;99.90;;;;;;4989464;28;20112;-72
2022/06/21 07:14:36;;;;;;;12.95;5.55;;;16.00;99.90;;;;;;4999751;28;20128;-72
2022/06/21 07:17:23;;;;;;;13.30;5.43;;;15.80;99.90;;;;;;4993158;28;20041;-72
2022/06/21 07:19:50;;;;;;;14.27;5.97;;;15.80;99.90;;;;;;4992245;28;20347;-75
2022/06/21 07:22:20;;;;;;;18.73;6.53;;;16.00;99.90;;;;;;4984274;28;20427;-73
2022/06/21 07:25:06;;;;;;;14.45;6.13;;;16.10;99.90;;;;;;5012578;28;20033;-73
2022/06/21 07:27:35;;;;;;;12.38;6.13;;;16.20;99.90;;;;;;5009371;28;20038;-73
2022/06/21 07:30:11;;;;;;;15.27;6.30;;;16.40;99.90;;;;;;4998761;28;20112;-72
2022/06/21 07:32:53;;;;;;;12.32;5.97;;;16.60;99.90;;;;;;4998791;28;20132;-73
2022/06/21 07:35:26;;;;;;;11.10;5.40;;;16.70;99.90;;;;;;5026411;28;20515;-73
2022/06/21 07:38:10;;;;;;;12.57;5.15;;;16.80;99.90;;;;;;5004258;28;20044;-72
2022/06/21 07:41:06;;;;;;;11.20;4.78;;;16.70;99.90;;;;;;4994958;28;20501;-74
2022/06/21 07:43:39;;;;;;;14.13;5.60;;;16.70;99.90;;;;;;4999218;28;20489;-74
2022/06/21 07:46:07;;;;;;;16.23;5.88;;;16.90;99.90;;;;;;4992555;28;20053;-74
2022/06/21 07:48:53;;;;;;;11.23;5.93;;;17.00;99.90;;;;;;4999145;28;20453;-74
2022/06/21 07:51:28;;;;;;;12.13;5.45;;;17.00;99.90;;;;;;5014438;28;20079;-73
2022/06/21 07:54:08;;;;;;;13.68;5.80;;;17.00;99.90;;;;;;5012919;28;20087;-73
2022/06/21 07:56:41;;;;;;;12.15;5.30;;;17.10;99.90;;;;;;5012368;28;20045;-72
2022/06/21 07:59:27;;;;;;;15.63;5.25;;;17.30;99.90;;;;;;5009092;28;20374;-71
2022/06/21 08:07:45;;;;;;;10.93;4.90;;;17.30;99.90;;;;;;5011772;28;20095;-73
2022/06/21 08:10:20;;;;;;;10.82;4.97;;;17.40;99.90;;;;;;5021566;28;20055;-73
2022/06/21 08:12:47;;;;;;;17.55;6.18;;;17.50;99.90;;;;;;5019813;28;20085;-72
2022/06/21 08:15:13;;;;;;;12.65;5.70;;;17.60;99.90;;;;;;4997575;28;20045;-73
2022/06/21 08:17:44;;;;;;;12.60;4.93;;;17.70;99.90;;;;;;5010344;28;20168;-71
2022/06/21 08:20:16;;;;;;;11.82;4.95;;;17.60;99.90;;;;;;5000708;28;20128;-73
2022/06/21 08:23:06;;;;;;;8.65;5.18;;;17.70;99.90;;;;;;5014086;28;20120;-73
2022/06/21 08:25:47;;;;;;;13.88;5.78;;;17.80;99.90;;;;;;4996048;28;20049;-72
2022/06/21 08:28:17;;;;;;;12.60;5.40;;;17.90;99.90;;;;;;5012643;28;20037;-72
2022/06/21 08:30:56;;;;;;;13.90;5.50;;;17.90;99.90;;;;;;5013469;28;20045;-72
2022/06/21 08:33:54;;;;;;;13.95;5.75;;;18.00;99.90;;;;;;5013036;28;20048;-74
2022/06/21 08:37:09;;;;;;;13.30;5.63;;;18.10;99.90;;;;;;5011608;28;20044;-73
2022/06/21 08:39:56;;;;;;;12.23;5.18;;;18.30;99.90;;;;;;4986023;28;20084;-72
2022/06/21 08:42:45;;;;;;;13.25;5.82;;;18.40;99.90;;;;;;5005369;28;20099;-72
2022/06/21 08:45:40;;;;;;;9.50;5.53;;;18.40;99.90;;;;;;5025558;28;20044;-74
2022/06/21 08:48:28;;;;;;;10.40;6.95;;;18.50;99.90;;;;;;4999547;28;20033;-73
2022/06/21 08:51:15;;;;;;;13.80;7.18;;;18.50;99.90;;;;;;5001812;28;20372;-73
2022/06/21 08:53:55;;;;;;;13.52;6.57;;;18.50;99.90;;;;;;5005575;28;20060;-73
2022/06/21 08:56:39;;;;;;;12.52;7.88;;;18.40;99.90;;;;;;5012740;28;20065;-72
2022/06/21 08:59:33;;;;;;;14.57;7.38;;;18.40;99.90;;;;;;5012838;28;20504;-74
2022/06/21 09:02:20;;;;;;;20.42;7.47;;;18.50;99.90;;;;;;4984311;28;20030;-75
2022/06/21 09:05:04;;;;;;;15.23;7.40;;;18.60;99.90;;;;;;5013446;28;20057;-75
2022/06/21 09:07:48;;;;;;;15.32;7.45;;;18.70;99.90;;;;;;5004256;28;20038;-72
2022/06/21 09:10:16;;;;;;;15.23;6.82;;;18.80;99.90;;;;;;5013447;28;20041;-72
2022/06/21 09:13:08;;;;;;;10.52;5.95;;;19.10;99.90;;;;;;5004715;28;20034;-72
2022/06/21 09:15:46;;;;;;;12.52;6.25;;;19.20;99.90;;;;;;4993159;28;20512;-74
2022/06/21 09:18:18;;;;;;;13.07;6.15;;;19.20;99.90;;;;;;4992289;28;20443;-73
2022/06/21 09:20:51;;;;;;;14.77;6.47;;;19.10;99.90;;;;;;5010058;28;20041;-75
2022/06/21 09:23:41;;;;;;;11.57;5.53;;;19.00;99.90;;;;;;5009373;28;20112;-73
2022/06/21 09:26:18;;;;;;;12.30;5.55;;;19.00;99.90;;;;;;5011497;28;20037;-73
2022/06/21 09:29:10;;;;;;;12.38;5.90;;;19.10;99.90;;;;;;5012942;28;20080;-72
2022/06/21 09:31:53;;;;;;;9.35;4.90;;;19.30;99.90;;;;;;4995089;28;20081;-72
2022/06/21 09:34:52;;;;;;;9.50;5.13;;;19.40;99.90;;;;;;5007588;28;20037;-74
2022/06/21 09:37:35;;;;;;;13.18;5.03;;;19.50;99.90;;;;;;5012222;28;20041;-74
2022/06/21 09:40:09;;;;;;;13.25;6.65;;;19.50;99.90;;;;;;4998704;28;20485;-74
2022/06/21 09:43:03;;;;;;;11.50;4.97;;;19.50;99.90;;;;;;5007874;28;20296;-75
2022/06/21 09:45:54;;;;;;;9.05;4.25;;;19.60;99.90;;;;;;5015157;28;20076;-73
2022/06/21 09:48:46;;;;;;;14.33;6.13;;;19.60;99.90;;;;;;5012302;28;20135;-75
2022/06/21 09:51:48;;;;;;;12.82;6.15;;;19.60;99.90;;;;;;5016582;28;20041;-74
2022/06/21 09:54:39;;;;;;;17.00;7.60;;;19.60;99.90;;;;;;5000453;28;20040;-73
2022/06/21 09:57:32;;;;;;;13.68;8.10;;;19.60;99.90;;;;;;5014804;28;20045;-74
2022/06/21 10:00:06;;;;;;;16.25;9.13;;;19.60;99.90;;;;;;5001752;28;20037;-74
2022/06/21 10:03:01;;;;;;;13.05;8.20;;;19.50;99.90;;;;;;5002209;28;20096;-74
2022/06/21 10:05:38;;;;;;;14.50;7.63;;;19.50;99.90;;;;;;4996569;28;20096;-72
2022/06/21 10:08:22;;;;;;;14.27;7.55;;;19.30;99.90;;;;;;5005532;28;20049;-72
2022/06/21 10:11:26;;;;;;;9.80;6.97;;;19.10;99.90;;;;;;5006634;28;20095;-73
2022/06/21 10:14:17;;;;;;;12.77;6.60;;;19.20;99.90;;;;;;5013568;28;20120;-73
2022/06/21 10:17:22;;;;;;;12.77;6.38;;;19.20;99.90;;;;;;4979170;28;20132;-74
2022/06/21 10:20:14;;;;;;;13.98;6.95;;;19.30;99.90;;;;;;4984665;28;20133;-74
2022/06/21 10:22:46;;;;;;;9.93;6.80;;;19.30;99.90;;;;;;5005538;28;20034;-74
2022/06/21 10:25:35;;;;;;;13.87;6.93;;;19.40;99.90;;;;;;5010594;28;20042;-74
2022/06/21 10:28:12;;;;;;;12.25;6.13;;;19.50;99.90;;;;;;5005284;28;20386;-72
2022/06/21 10:30:46;;;;;;;8.15;5.15;;;19.60;99.90;;;;;;4991973;28;20056;-73
2022/06/21 10:33:35;;;;;;;9.18;5.25;;;19.60;99.90;;;;;;5008349;28;20034;-74
2022/06/21 10:36:21;;;;;;;11.40;4.72;;;19.70;99.90;;;;;;4987324;28;20041;-75
2022/06/21 10:39:16;;;;;;;11.30;4.53;;;19.60;99.90;;;;;;5016546;28;20065;-71
2022/06/21 10:45:28;;;;;;;8.07;3.53;;;19.40;99.90;;;;;;5009037;28;20084;-71
2022/06/21 10:48:15;;;;;;;10.25;3.90;;;19.60;99.90;;;;;;5011804;28;20045;-69
2022/06/21 10:51:06;;;;;;;8.77;4.57;;;19.80;99.90;;;;;;4995293;28;20540;-72
2022/06/21 10:53:41;;;;;;;8.70;4.50;;;20.00;99.90;;;;;;5005024;28;20483;-73
2022/06/21 11:02:55;;;;;;;14.07;5.05;;;20.50;99.90;;;;;;5000611;28;20112;-72
2022/06/21 11:05:54;;;;;;;10.73;4.63;;;20.40;99.90;;;;;;4994685;28;20045;-71
2022/06/21 11:08:29;;;;;;;12.48;4.20;;;20.60;99.90;;;;;;5007875;28;20131;-73
2022/06/21 11:11:05;;;;;;;7.15;4.50;;;20.70;99.90;;;;;;5014351;28;20045;-73
2022/06/21 11:13:36;;;;;;;13.57;5.35;;;20.80;99.90;;;;;;4958475;28;1117012;-73
2022/06/21 11:16:32;;;;;;;9.85;5.10;;;20.70;99.90;;;;;;5000134;28;20122;-74
2022/06/21 11:19:39;;;;;;;10.88;5.88;;;20.50;99.90;;;;;;4997348;28;20086;-66
2022/06/21 11:22:43;;;;;;;15.32;7.00;;;20.40;99.90;;;;;;5014741;28;20068;-73
2022/06/21 11:25:34;;;;;;;12.95;6.22;;;20.20;99.90;;;;;;4998790;28;20038;-72
2022/06/21 11:28:13;;;;;;;8.73;5.43;;;20.00;99.90;;;;;;5014523;28;20493;-72
2022/06/21 11:30:50;;;;;;;9.82;5.43;;;20.10;99.90;;;;;;5013499;28;20041;-73
2022/06/21 11:33:27;;;;;;;12.27;4.95;;;20.20;99.90;;;;;;5015297;28;20128;-72
2022/06/21 11:36:16;;;;;;;13.70;5.15;;;20.30;99.90;;;;;;5014716;28;20044;-74
2022/06/21 11:39:11;;;;;;;14.05;4.40;;;20.30;99.90;;;;;;5014322;28;20037;-71
2022/06/21 11:42:04;;;;;;;13.52;5.00;;;20.40;99.90;;;;;;5014786;28;20129;-73
2022/06/21 11:45:05;;;;;;;10.45;3.40;;;20.50;99.90;;;;;;5013035;28;20045;-74
2022/06/21 11:47:39;;;;;;;6.55;3.10;;;20.50;99.90;;;;;;4968973;28;20049;-75
2022/06/21 11:50:20;;;;;;;7.47;3.65;;;20.50;99.90;;;;;;5014007;28;20079;-74
2022/06/21 11:53:13;;;;;;;11.73;3.63;;;20.50;94.00;;;;;;5010923;28;20487;-74
2022/06/21 11:55:51;;;;;;;7.75;3.28;;;20.60;98.80;;;;;;4981491;28;20521;-72
2022/06/21 11:58:17;;;;;;;15.07;3.95;;;20.70;99.90;;;;;;5013903;28;20038;-72
2022/06/21 12:00:48;;;;;;;10.55;4.32;;;20.80;99.90;;;;;;5015186;28;20119;-73
2022/06/21 12:03:37;;;;;;;9.25;3.70;;;20.80;99.90;;;;;;5013127;28;20091;-73
2022/06/21 12:06:11;;;;;;;8.82;3.90;;;20.80;99.40;;;;;;5013842;28;20037;-70
2022/06/21 12:08:55;;;;;;;9.48;3.50;;;20.90;99.90;;;;;;5013072;28;20042;-71
2022/06/21 12:11:43;;;;;;;6.50;3.08;;;21.00;99.90;;;;;;4996506;28;20120;-72
2022/06/21 12:14:36;;;;;;;5.97;2.78;;;21.20;99.90;;;;;;5006404;28;20050;-72
2022/06/21 12:17:01;;;;;;;6.53;2.75;;;21.20;99.30;;;;;;5013710;28;20041;-73
2022/06/21 12:19:34;;;;;;;6.82;3.10;;;21.30;99.20;;;;;;5012479;28;20207;-72
2022/06/21 12:22:30;;;;;;;7.75;2.80;;;21.40;97.20;;;;;;4996149;28;20120;-71
2022/06/21 12:24:56;;;;;;;7.82;2.90;;;21.40;91.10;;;;;;5009032;28;20040;-73
2022/06/21 12:27:23;;;;;;;7.50;2.85;;;21.50;91.40;;;;;;4993624;28;20042;-73
2022/06/21 12:29:48;;;;;;;5.90;2.88;;;21.40;86.20;;;;;;4978004;28;20473;-73
2022/06/21 12:32:23;;;;;;;8.50;2.50;;;21.40;86.20;;;;;;4993645;28;20042;-73
2022/06/21 12:35:15;;;;;;;10.93;3.15;;;21.40;86.40;;;;;;5004046;28;20500;-72
2022/06/21 12:37:51;;;;;;;9.98;2.70;;;21.30;92.30;;;;;;4993266;28;20050;-73
2022/06/21 12:40:34;;;;;;;7.43;2.97;;;21.30;94.70;;;;;;4994262;28;20045;-73
2022/06/21 12:42:59;;;;;;;;;;;21.50;94.30;;;;;;4994093;28;20435;-72
2022/06/21 12:45:45;;;;;;;8.27;4.00;;;21.60;99.60;;;;;;4993528;28;19975;-72
2022/06/21 12:48:49;;;;;;;10.73;3.92;;;21.70;99.90;;;;;;4993214;28;20045;-73
2022/06/21 12:51:32;;;;;;;6.35;3.38;;;21.90;99.90;;;;;;4990634;28;20041;-72
2022/06/21 12:54:13;;;;;;;7.22;3.47;;;22.00;99.90;;;;;;5013195;28;20041;-72
2022/06/21 12:57:12;;;;;;;8.77;3.40;;;22.00;99.90;;;;;;5013012;28;20041;-70
2022/06/21 13:00:02;;;;;;;10.15;3.92;;;22.10;99.90;;;;;;4997297;28;20056;-73
2022/06/21 13:02:37;;;;;;;10.65;3.58;;;22.30;98.80;;;;;;5013409;28;20040;-71
2022/06/21 13:05:33;;;;;;;7.05;3.83;;;22.20;92.80;;;;;;5013249;28;20064;-73
2022/06/21 13:08:30;;;;;;;7.32;3.40;;;22.10;90.90;;;;;;4998399;28;20266;-73
2022/06/21 13:11:20;;;;;;;9.13;3.20;;;22.00;93.60;;;;;;4993802;28;20152;-72
2022/06/21 13:14:08;;;;;;;8.07;3.20;;;21.90;83.70;;;;;;4993666;28;20484;-74
2022/06/21 13:16:49;;;;;;;9.20;3.42;;;22.00;89.50;;;;;;4992866;28;20042;-72
2022/06/21 13:19:34;;;;;;;10.70;3.43;;;21.90;87.30;;;;;;4993369;28;20045;-72
2022/06/21 13:22:02;;;;;;;8.35;3.25;;;21.80;89.50;;;;;;5001011;28;20038;-71
2022/06/21 13:24:55;;;;;;;9.57;3.47;;;21.70;88.80;;;;;;5008512;28;20037;-74
2022/06/21 13:27:27;;;;;;;8.18;3.20;;;21.60;90.00;;;;;;4996101;28;20045;-73
2022/06/21 13:30:01;;;;;;;12.10;2.97;;;21.60;90.70;;;;;;4994556;28;20480;-72
2022/06/21 13:33:08;;;;;;;11.60;3.10;;;21.70;92.00;;;;;;4988219;28;20339;-69
2022/06/21 13:35:56;;;;;;;17.20;3.80;;;21.90;99.90;;;;;;4983354;28;20129;-73
2022/06/21 13:38:48;;;;;;;7.50;3.45;;;22.00;97.90;;;;;;4993121;28;20472;-73
2022/06/21 13:44:25;;;;;;;9.30;3.83;;;22.00;98.20;;;;;;5009132;28;20407;-73
2022/06/21 13:47:00;;;;;;;9.50;3.50;;;22.10;93.50;;;;;;5012709;28;20268;-74
2022/06/21 13:49:40;;;;;;;9.63;4.07;;;22.10;96.80;;;;;;5013129;28;20562;-74
2022/06/21 13:52:16;;;;;;;12.05;4.22;;;22.10;96.20;;;;;;5004494;28;20053;-73
2022/06/21 13:54:51;;;;;;;13.15;4.60;;;22.10;96.30;;;;;;5010020;28;20044;-71
2022/06/21 13:57:45;;;;;;;12.52;5.70;;;22.10;97.60;;;;;;5011433;28;20049;-71
2022/06/21 14:00:15;;;;;;;13.85;6.15;;;22.00;98.70;;;;;;5012270;28;20049;-72
2022/06/21 14:03:12;;;;;;;13.27;6.05;;;22.00;99.90;;;;;;5006342;28;20542;-73
2022/06/21 14:05:47;;;;;;;10.07;5.10;;;22.10;99.90;;;;;;4981006;28;20191;-71
2022/06/21 14:08:37;;;;;;;11.38;5.60;;;22.30;99.90;;;;;;5012340;28;20484;-72
2022/06/21 14:11:27;;;;;;;13.20;5.13;;;22.40;99.90;;;;;;4998457;28;20034;-72
2022/06/21 14:14:15;;;;;;;15.05;4.82;;;22.50;97.40;;;;;;5012582;28;20095;-73
2022/06/21 14:17:28;;;;;;;14.23;6.40;;;22.50;99.90;;;;;;5011079;28;20038;-74
2022/06/21 14:20:18;;;;;;;15.82;5.63;;;22.50;94.40;;;;;;4985862;28;20497;-71
2022/06/21 14:23:08;;;;;;;14.48;5.45;;;22.50;97.50;;;;;;5012583;28;20033;-72
2022/06/21 14:25:40;;;;;;;10.30;5.40;;;22.50;99.50;;;;;;5012857;28;20400;-73
2022/06/21 14:28:27;;;;;;;14.52;5.15;;;22.50;96.10;;;;;;5008113;28;20504;-71
2022/06/21 14:31:04;;;;;;;13.35;4.63;;;22.50;96.50;;;;;;5013603;28;20041;-72
2022/06/21 14:33:49;;;;;;;17.92;4.70;;;22.50;97.20;;;;;;5016035;28;20506;-71
2022/06/21 14:36:36;;;;;;;7.40;4.20;;;22.50;93.00;;;;;;5014983;28;20081;-72
2022/06/21 14:39:35;;;;;;;10.98;4.57;;;22.60;94.20;;;;;;5015434;28;20522;-71
2022/06/21 14:42:14;;;;;;;17.67;5.10;;;22.70;98.30;;;;;;4996118;28;20046;-71
2022/06/21 14:44:59;;;;;;;12.93;4.22;;;22.70;96.80;;;;;;5014212;28;20091;-71
2022/06/21 14:47:33;;;;;;;11.57;4.50;;;22.70;96.90;;;;;;4995545;28;20049;-71
2022/06/21 14:50:19;;;;;;;11.05;4.35;;;22.70;98.30;;;;;;5008360;28;20037;-71
2022/06/21 14:53:03;;;;;;;11.70;4.60;;;22.80;98.50;;;;;;5013401;28;20320;-71
2022/06/21 14:55:44;;;;;;;8.27;4.70;;;22.90;97.60;;;;;;5015352;28;20128;-72
2022/06/21 14:58:48;;;;;;;14.05;4.88;;;22.80;92.10;;;;;;5011635;28;20041;-72
2022/06/21 15:01:47;;;;;;;10.23;4.15;;;22.70;91.30;;;;;;5011920;28;20566;-71
2022/06/21 15:04:44;;;;;;;10.10;4.75;;;22.70;97.20;;;;;;4983422;28;20081;-72
2022/06/21 15:07:36;;;;;;;21.60;4.90;;;22.70;96.70;;;;;;5014896;28;20072;-71
2022/06/21 15:10:08;;;;;;;9.88;4.60;;;22.80;98.10;;;;;;5015024;28;20384;-75
2022/06/21 15:12:51;;;;;;;9.13;5.03;;;22.80;96.30;;;;;;5008759;28;20077;-74
2022/06/21 15:15:21;;;;;;;11.65;4.90;;;22.60;92.40;;;;;;5008687;28;20069;-73